createdAt,value
2023-04-30T00:04:35.566Z,16.30
2023-04-30T00:09:37.715Z,16.30
2023-04-30T00:14:40.134Z,16.40
2023-04-30T00:19:42.968Z,16.50
2023-04-30T00:24:45.522Z,16.40
2023-04-30T00:29:47.721Z,16.40
2023-04-30T00:34:50.112Z,16.20
2023-04-30T00:39:52.850Z,16.20
2023-04-30T00:44:55.209Z,16.20
2023-04-30T00:49:58.798Z,16.00
2023-04-30T00:55:01.174Z,16.10
2023-04-30T01:00:04.471Z,16.30
2023-04-30T01:05:08.115Z,16.30
2023-04-30T01:10:12.507Z,16.40
2023-04-30T01:15:27.627Z,16.30
2023-04-30T01:20:32.338Z,16.40
2023-04-30T01:25:58.366Z,16.40
2023-04-30T01:31:00.673Z,16.30
2023-04-30T01:36:36.059Z,16.20
2023-04-30T01:42:02.418Z,16.10
2023-04-30T01:47:25.775Z,16.20
2023-04-30T01:52:45.119Z,16.10
2023-04-30T01:58:00.704Z,16.20
2023-04-30T02:03:03.284Z,16.00
2023-04-30T02:08:06.354Z,16.50
2023-04-30T02:13:08.999Z,16.10
2023-04-30T02:18:11.321Z,16.10
2023-04-30T02:23:13.595Z,15.80
2023-04-30T02:28:15.813Z,15.80
2023-04-30T02:33:17.954Z,15.90
2023-04-30T02:38:20.058Z,16.10
2023-04-30T02:43:22.481Z,16.10
2023-04-30T02:48:24.964Z,16.00
2023-04-30T02:53:27.558Z,16.10
2023-04-30T02:58:29.737Z,16.10
2023-04-30T03:03:32.242Z,16.10
2023-04-30T03:08:34.544Z,15.80
2023-04-30T03:13:36.766Z,15.90
2023-04-30T03:18:38.911Z,16.00
2023-04-30T03:23:41.178Z,15.80
2023-04-30T03:28:43.457Z,15.70
2023-04-30T03:33:45.750Z,15.80
2023-04-30T03:38:47.964Z,15.70
2023-04-30T03:43:50.290Z,15.70
2023-04-30T03:48:52.734Z,15.60
2023-04-30T03:53:56.033Z,15.60
2023-04-30T03:58:58.530Z,15.70
2023-04-30T04:04:01.624Z,15.60
2023-04-30T04:09:04.950Z,15.80
2023-04-30T04:14:07.125Z,15.70
2023-04-30T04:19:09.274Z,15.80
2023-04-30T04:24:11.504Z,15.80
2023-04-30T04:29:13.762Z,15.70
2023-04-30T04:34:16.958Z,15.50
2023-04-30T04:39:19.045Z,15.40
2023-04-30T04:44:21.881Z,15.40
2023-04-30T04:49:24.240Z,15.40
2023-04-30T04:54:27.659Z,15.50
2023-04-30T04:59:30.700Z,15.40
2023-04-30T05:04:33.019Z,15.50
2023-04-30T05:09:35.105Z,15.40
2023-04-30T05:14:37.581Z,15.40
2023-04-30T05:19:39.668Z,15.40
2023-04-30T05:24:41.839Z,15.50
2023-04-30T05:29:44.061Z,15.50
2023-04-30T05:34:46.200Z,15.80
2023-04-30T05:39:48.828Z,15.40
2023-04-30T05:44:51.131Z,15.50
2023-04-30T05:49:53.512Z,15.60
2023-04-30T05:54:55.858Z,16.00
2023-04-30T05:59:57.994Z,16.20
2023-04-30T06:05:02.190Z,16.20
2023-04-30T06:10:05.092Z,16.20
2023-04-30T06:15:08.131Z,16.30
2023-04-30T06:20:10.909Z,16.30
2023-04-30T06:25:13.112Z,16.20
2023-04-30T06:30:15.575Z,16.30
2023-04-30T06:35:17.788Z,16.50
2023-04-30T06:40:20.779Z,16.50
2023-04-30T06:45:23.067Z,16.70
2023-04-30T06:50:25.174Z,16.70
2023-04-30T06:55:28.265Z,16.80
2023-04-30T07:00:33.048Z,17.00
2023-04-30T07:05:35.397Z,17.20
2023-04-30T07:10:37.568Z,17.40
2023-04-30T07:15:40.395Z,17.60
2023-04-30T07:20:42.646Z,17.90
2023-04-30T07:25:44.924Z,18.00
2023-04-30T07:30:47.278Z,18.00
2023-04-30T07:35:49.445Z,18.20
2023-04-30T07:40:51.629Z,18.30
2023-04-30T07:45:54.845Z,18.60
2023-04-30T07:50:57.711Z,18.90
2023-04-30T07:55:59.915Z,19.40
2023-04-30T08:01:02.106Z,20.00
2023-04-30T08:06:06.162Z,19.90
2023-04-30T08:11:08.364Z,20.00
2023-04-30T08:16:10.550Z,20.40
2023-04-30T08:21:13.980Z,20.30
2023-04-30T08:26:16.096Z,20.40
2023-04-30T08:31:21.274Z,20.30
2023-04-30T08:36:23.511Z,20.20
2023-04-30T08:41:30.599Z,20.70
2023-04-30T08:46:35.751Z,20.20
2023-04-30T08:51:38.233Z,20.20
2023-04-30T08:56:41.556Z,20.10
2023-04-30T09:01:43.937Z,20.00
2023-04-30T09:06:46.427Z,20.40
2023-04-30T09:11:48.624Z,21.20
2023-04-30T09:16:53.016Z,21.70
2023-04-30T09:21:56.529Z,21.20
2023-04-30T09:26:58.768Z,20.60
2023-04-30T09:32:10.094Z,20.40
2023-04-30T09:37:12.616Z,20.40
2023-04-30T09:42:15.134Z,20.60
2023-04-30T09:47:20.617Z,20.30
2023-04-30T09:52:23.669Z,20.30
2023-04-30T09:57:30.578Z,20.00
2023-04-30T10:02:34.283Z,20.00
2023-04-30T10:07:40.908Z,19.60
2023-04-30T10:12:53.503Z,19.90
2023-04-30T10:18:05.955Z,19.90
2023-04-30T10:23:08.814Z,20.10
2023-04-30T10:28:11.857Z,20.30
2023-04-30T10:33:17.117Z,20.20
2023-04-30T10:38:25.442Z,20.40
2023-04-30T10:43:30.641Z,20.50
2023-04-30T10:48:36.081Z,20.30
2023-04-30T10:53:40.442Z,19.90
2023-04-30T10:58:44.296Z,20.00
2023-04-30T11:04:10.710Z,19.90
2023-04-30T11:09:13.098Z,19.70
2023-04-30T11:14:21.615Z,19.80
2023-04-30T11:19:25.250Z,20.00
2023-04-30T11:24:55.513Z,20.20
2023-04-30T11:29:59.485Z,20.40
2023-04-30T11:35:06.868Z,20.00
2023-04-30T11:40:12.073Z,19.90
2023-04-30T11:45:23.567Z,20.10
2023-04-30T11:50:29.690Z,20.10
2023-04-30T11:55:32.121Z,20.20
2023-04-30T12:00:34.658Z,20.00
2023-04-30T12:05:37.091Z,19.90
2023-04-30T12:10:39.433Z,20.10
2023-04-30T12:15:41.794Z,20.40
2023-04-30T12:20:44.575Z,20.40
2023-04-30T12:25:47.822Z,20.40
2023-04-30T12:30:50.025Z,20.50
2023-04-30T12:35:54.137Z,20.40
2023-04-30T12:40:57.248Z,20.30
2023-04-30T12:45:59.816Z,20.10
2023-04-30T12:51:03.066Z,20.10
2023-04-30T12:56:18.169Z,20.00
2023-04-30T13:01:23.241Z,20.30
2023-04-30T13:06:25.735Z,20.40
2023-04-30T13:11:28.418Z,20.60
2023-04-30T13:16:31.980Z,20.80
2023-04-30T13:21:34.218Z,21.20
2023-04-30T13:26:37.139Z,20.90
2023-04-30T13:31:39.240Z,20.80
2023-04-30T13:36:41.425Z,21.20
2023-04-30T13:41:43.547Z,21.80
2023-04-30T13:46:45.865Z,21.40
2023-04-30T13:51:48.128Z,21.20
2023-04-30T13:56:50.584Z,21.20
2023-04-30T14:01:52.837Z,21.30
2023-04-30T14:06:56.881Z,21.60
2023-04-30T14:11:59.272Z,21.50
2023-04-30T14:17:02.165Z,21.10
2023-04-30T14:22:04.441Z,20.80
2023-04-30T14:27:07.105Z,20.90
2023-04-30T14:32:09.329Z,21.20
2023-04-30T14:37:11.858Z,20.90
2023-04-30T14:42:14.330Z,20.80
2023-04-30T14:47:16.743Z,21.00
2023-04-30T14:52:19.998Z,21.30
2023-04-30T14:57:23.618Z,21.70
2023-04-30T15:02:25.884Z,21.60
2023-04-30T15:07:28.316Z,22.00
2023-04-30T15:12:30.492Z,22.00
2023-04-30T15:17:37.267Z,22.20
2023-04-30T15:22:40.620Z,22.20
2023-04-30T15:27:43.002Z,21.60
2023-04-30T15:32:47.655Z,21.60
2023-04-30T15:37:51.751Z,21.60
2023-04-30T15:42:53.857Z,21.50
2023-04-30T15:47:56.129Z,21.20
2023-04-30T15:52:58.632Z,21.30
2023-04-30T15:58:01.057Z,21.20
2023-04-30T16:03:03.541Z,20.90
2023-04-30T16:08:09.585Z,20.80
2023-04-30T16:13:11.841Z,20.60
2023-04-30T16:18:14.027Z,20.60
2023-04-30T16:23:16.855Z,20.50
2023-04-30T16:28:21.528Z,20.40
2023-04-30T16:33:25.411Z,20.40
2023-04-30T16:38:27.726Z,20.30
2023-04-30T16:43:29.848Z,20.00
2023-04-30T16:48:32.012Z,20.10
2023-04-30T16:53:36.298Z,20.10
2023-04-30T16:58:41.398Z,20.00
2023-04-30T17:03:43.753Z,20.10
2023-04-30T17:08:46.137Z,20.10
2023-04-30T17:13:48.544Z,20.00
2023-04-30T17:18:50.656Z,20.00
2023-04-30T17:23:52.942Z,19.90
2023-04-30T17:28:55.065Z,19.80
2023-04-30T17:33:57.337Z,19.70
2023-04-30T17:39:02.791Z,19.60
2023-04-30T17:44:05.110Z,19.60
2023-04-30T17:49:07.946Z,19.50
2023-04-30T17:54:10.233Z,19.50
2023-04-30T17:59:12.738Z,19.50
2023-04-30T18:04:20.817Z,19.40
2023-04-30T18:09:24.084Z,19.30
2023-04-30T18:14:26.168Z,19.30
2023-04-30T18:19:28.478Z,19.20
2023-04-30T18:24:30.890Z,19.20
2023-04-30T18:29:33.149Z,19.10
2023-04-30T18:34:35.354Z,19.00
2023-04-30T18:39:37.577Z,19.00
2023-04-30T18:44:39.828Z,18.70
2023-04-30T18:49:43.319Z,18.70
2023-04-30T18:54:45.535Z,18.60
2023-04-30T18:59:48.304Z,18.60
2023-04-30T19:04:52.355Z,18.50
2023-04-30T19:09:55.856Z,18.20
2023-04-30T19:14:58.987Z,17.90
2023-04-30T19:20:01.281Z,17.70
2023-04-30T19:25:04.258Z,17.50
2023-04-30T19:30:07.457Z,17.20
2023-04-30T19:35:09.983Z,17.40
2023-04-30T19:40:12.991Z,17.50
2023-04-30T19:45:15.195Z,17.50
2023-04-30T19:50:17.654Z,17.70
2023-04-30T19:55:19.973Z,17.50
2023-04-30T20:00:23.484Z,17.20
2023-04-30T20:05:25.875Z,17.30
2023-04-30T20:10:28.195Z,17.20
2023-04-30T20:15:30.882Z,17.00
2023-04-30T20:20:33.245Z,16.90
2023-04-30T20:25:35.828Z,16.80
2023-04-30T20:30:38.141Z,16.70
2023-04-30T20:35:47.654Z,16.80
2023-04-30T20:40:50.583Z,16.70
2023-04-30T20:45:59.025Z,16.40
2023-04-30T20:51:01.393Z,16.60
2023-04-30T20:56:04.590Z,16.80
2023-04-30T21:01:07.474Z,16.70
2023-04-30T21:06:10.310Z,16.70
2023-04-30T21:11:14.300Z,16.80
2023-04-30T21:16:16.562Z,16.70
2023-04-30T21:21:18.880Z,16.50
2023-04-30T21:26:21.907Z,16.50
2023-04-30T21:31:24.880Z,16.60
2023-04-30T21:36:29.240Z,16.60
2023-04-30T21:41:32.332Z,16.60
2023-04-30T21:46:34.484Z,16.10
2023-04-30T21:56:41.367Z,16.10
2023-04-30T22:01:43.578Z,16.30
2023-04-30T22:06:46.378Z,15.70
2023-04-30T22:11:49.710Z,16.10
2023-04-30T22:16:51.992Z,16.10
2023-04-30T22:21:54.157Z,16.00
2023-04-30T22:26:56.543Z,15.90
2023-04-30T22:31:58.740Z,15.90
2023-04-30T22:37:01.005Z,15.80
2023-04-30T22:42:05.050Z,15.70
2023-04-30T22:47:07.376Z,15.90
2023-04-30T22:52:09.806Z,15.80
2023-04-30T22:57:12.239Z,15.80
2023-04-30T23:02:15.149Z,15.60
2023-04-30T23:07:17.481Z,15.70
2023-04-30T23:12:19.618Z,15.70
2023-04-30T23:17:23.452Z,16.20
2023-04-30T23:22:25.773Z,16.50
2023-04-30T23:27:28.900Z,16.80
2023-04-30T23:32:31.696Z,16.60
2023-04-30T23:37:35.303Z,16.20
2023-04-30T23:42:37.404Z,16.40
2023-04-30T23:47:39.837Z,15.70
2023-04-30T23:52:41.982Z,15.40
2023-04-30T23:57:44.200Z,15.50
